Terminal Aerodrome Forecast
Issued by NWS

Home | Current Version | Previous Version | Text Only | Print | Product List | Glossary On
Versions: 1 2 3 4 5 6 7 8 9 10 11
000
FTUS45 KRIW 131730
TAFWRL
TAF
KWRL 131730Z 1318/1418 VRB05KT P6SM BKN250
     FM132200 33007KT P6SM VCSH BKN040
     FM140000 30010KT 4SM -SHSN BKN022
     FM140300 34006KT P6SM BKN050
     FM140800 VRB05KT P6SM SCT060=

USA.gov is the U.S. government's official web portal to all federal, state and local government web resources and services.